createdAt,value
2022-09-14T00:00:00.488Z,100.05
2022-09-14T00:04:45.605Z,97.72
2022-09-14T00:09:30.996Z,111.85
2022-09-14T00:14:19.614Z,117.22
2022-09-14T00:19:08.078Z,118.72
2022-09-14T00:23:53.207Z,117.05
2022-09-14T00:28:41.191Z,107.25
2022-09-14T00:33:29.051Z,106.05
2022-09-14T00:38:14.338Z,100.47
2022-09-14T00:42:59.348Z,110.82
2022-09-14T00:47:45.402Z,108.75
2022-09-14T00:52:36.487Z,113.90
2022-09-14T00:57:23.058Z,103.10
2022-09-14T01:02:10.174Z,102.28
2022-09-14T01:07:06.384Z,101.03
2022-09-14T01:12:07.330Z,94.43
2022-09-14T01:17:01.991Z,92.85
2022-09-14T01:21:47.975Z,91.75
2022-09-14T01:27:02.959Z,81.68
2022-09-14T01:31:56.644Z,81.22
2022-09-14T01:36:44.798Z,80.15
2022-09-14T01:41:32.962Z,86.43
2022-09-14T01:46:22.256Z,86.10
2022-09-14T01:51:16.393Z,73.82
2022-09-14T01:56:05.903Z,77.32
2022-09-14T02:00:54.162Z,75.57
2022-09-14T02:05:45.399Z,76.10
2022-09-14T02:15:18.795Z,70.13
2022-09-14T02:20:06.991Z,66.85
2022-09-14T02:24:52.515Z,67.38
2022-09-14T02:29:40.933Z,64.45
2022-09-14T02:34:33.289Z,49.65
2022-09-14T02:39:28.324Z,48.45
2022-09-14T02:44:22.426Z,36.22
2022-09-14T02:49:18.124Z,31.48
2022-09-14T02:54:08.940Z,27.27
2022-09-14T02:58:54.255Z,22.85
2022-09-14T03:03:39.317Z,21.27
2022-09-14T03:08:27.878Z,20.75
2022-09-14T03:13:13.337Z,21.75
2022-09-14T03:17:58.633Z,18.38
2022-09-14T03:22:43.730Z,19.02
2022-09-14T03:27:31.665Z,22.92
2022-09-14T03:32:16.658Z,19.30
2022-09-14T03:37:02.053Z,19.13
2022-09-14T03:41:47.044Z,18.50
2022-09-14T03:46:35.036Z,19.30
2022-09-14T03:51:20.238Z,19.75
2022-09-14T03:56:10.775Z,17.02
2022-09-14T04:00:55.993Z,16.35
2022-09-14T04:05:45.504Z,21.00
2022-09-14T04:10:30.769Z,19.00
2022-09-14T04:15:16.084Z,17.00
2022-09-14T04:20:01.133Z,16.10
2022-09-14T04:24:49.025Z,16.75
2022-09-14T04:29:34.015Z,16.35
2022-09-14T04:34:19.505Z,13.77
2022-09-14T04:39:06.345Z,15.90
2022-09-14T04:43:55.403Z,15.02
2022-09-14T04:48:40.739Z,16.35
2022-09-14T04:53:25.998Z,15.90
2022-09-14T04:58:11.003Z,15.05
2022-09-14T05:02:59.082Z,13.75
2022-09-14T05:07:44.174Z,12.35
2022-09-14T05:12:29.444Z,16.67
2022-09-14T05:17:14.636Z,12.23
2022-09-14T05:22:02.497Z,12.98
2022-09-14T05:26:48.722Z,12.00
2022-09-14T05:31:34.988Z,11.63
2022-09-14T05:36:20.347Z,11.80
2022-09-14T05:41:09.772Z,17.00
2022-09-14T05:45:55.246Z,12.55
2022-09-14T05:50:40.524Z,16.10
2022-09-14T05:55:25.665Z,17.92
2022-09-14T06:00:15.290Z,16.98
2022-09-14T06:05:00.376Z,15.13
2022-09-14T06:09:45.576Z,15.70
2022-09-14T06:14:30.594Z,14.98
2022-09-14T06:19:18.678Z,10.73
2022-09-14T06:24:03.580Z,12.43
2022-09-14T06:28:48.948Z,12.57
2022-09-14T06:33:34.243Z,9.13
2022-09-14T06:38:22.170Z,16.15
2022-09-14T06:43:07.238Z,13.43
2022-09-14T06:47:52.532Z,11.40
2022-09-14T06:52:40.289Z,17.35
2022-09-14T06:57:28.223Z,11.57
2022-09-14T07:02:15.122Z,21.48
2022-09-14T07:07:00.453Z,8.55
2022-09-14T07:11:45.950Z,14.13
2022-09-14T07:16:35.358Z,12.85
2022-09-14T07:21:21.623Z,15.90
2022-09-14T07:26:09.599Z,13.90
2022-09-14T07:30:58.826Z,12.80
2022-09-14T07:35:46.994Z,12.65
2022-09-14T07:40:32.086Z,14.65
2022-09-14T07:45:17.505Z,10.13
2022-09-14T07:50:02.486Z,12.10
2022-09-14T07:54:50.446Z,13.60
2022-09-14T07:59:37.015Z,11.50
2022-09-14T08:04:22.885Z,11.52
2022-09-14T08:09:10.409Z,9.70
2022-09-14T08:13:59.866Z,5.82
2022-09-14T08:18:45.012Z,7.35
2022-09-14T08:23:30.312Z,7.57
2022-09-14T08:28:15.318Z,6.40
2022-09-14T08:33:03.193Z,3.22
2022-09-14T08:37:48.165Z,5.35
2022-09-14T08:42:34.309Z,4.75
2022-09-14T08:47:26.301Z,5.90
2022-09-14T08:52:22.945Z,7.03
2022-09-14T08:57:17.028Z,3.88
2022-09-14T09:02:16.023Z,4.68
2022-09-14T09:07:08.398Z,5.50
2022-09-14T09:11:58.798Z,4.95
2022-09-14T09:16:44.018Z,4.17
2022-09-14T09:21:35.044Z,5.82
2022-09-14T09:26:26.746Z,5.35
2022-09-14T09:31:18.090Z,7.03
2022-09-14T09:36:03.597Z,4.80
2022-09-14T09:40:53.459Z,5.93
2022-09-14T09:45:54.809Z,8.13
2022-09-14T09:50:51.838Z,5.05
2022-09-14T09:55:40.885Z,5.80
2022-09-14T10:00:29.784Z,5.05
2022-09-14T10:05:24.266Z,5.85
2022-09-14T10:10:14.536Z,3.72
2022-09-14T10:15:18.003Z,7.33
2022-09-14T10:20:04.418Z,3.83
2022-09-14T10:25:00.938Z,5.15
2022-09-14T10:29:52.325Z,4.25
2022-09-14T10:34:37.540Z,3.45
2022-09-14T10:39:30.044Z,5.93
2022-09-14T10:44:40.893Z,3.40
2022-09-14T10:49:48.258Z,4.47
2022-09-14T10:54:55.895Z,4.03
2022-09-14T10:59:51.144Z,4.22
2022-09-14T11:05:08.447Z,4.50
2022-09-14T11:10:00.038Z,4.25
2022-09-14T11:15:01.396Z,5.78
2022-09-14T11:19:56.706Z,5.90
2022-09-14T11:24:50.128Z,4.85
2022-09-14T11:29:41.002Z,6.93
2022-09-14T11:34:31.146Z,4.47
2022-09-14T11:39:22.431Z,5.13
2022-09-14T11:44:16.396Z,5.85
2022-09-14T11:49:10.588Z,5.07
2022-09-14T11:53:55.650Z,8.32
2022-09-14T11:58:41.124Z,7.68
2022-09-14T12:03:54.486Z,6.90
2022-09-14T12:08:42.898Z,5.47
2022-09-14T12:13:28.080Z,7.30
2022-09-14T12:18:26.175Z,4.70
2022-09-14T12:23:25.616Z,6.43
2022-09-14T12:28:33.449Z,6.43
2022-09-14T12:33:48.498Z,11.30
2022-09-14T12:39:22.174Z,6.15
2022-09-14T12:44:08.067Z,5.03
2022-09-14T12:49:03.398Z,5.30
2022-09-14T12:54:00.965Z,5.93
2022-09-14T12:59:05.727Z,6.18
2022-09-14T13:03:54.059Z,5.97
2022-09-14T13:08:39.444Z,5.60
2022-09-14T13:13:33.230Z,5.15
2022-09-14T13:18:32.241Z,5.38
2022-09-14T13:23:27.026Z,4.05
2022-09-14T13:28:19.103Z,4.55
2022-09-14T13:33:07.449Z,5.43
2022-09-14T13:37:52.762Z,6.95
2022-09-14T13:42:38.384Z,7.63
2022-09-14T13:47:25.518Z,5.05
2022-09-14T13:53:00.615Z,5.75
2022-09-14T13:58:08.379Z,6.78
2022-09-14T14:02:56.297Z,5.50
2022-09-14T14:07:48.937Z,5.15
2022-09-14T14:12:37.178Z,6.78
2022-09-14T14:17:44.022Z,5.20
2022-09-14T14:22:31.917Z,5.03
2022-09-14T14:27:32.021Z,4.35
2022-09-14T14:32:17.397Z,5.73
2022-09-14T14:37:02.887Z,4.82
2022-09-14T14:41:48.611Z,6.15
2022-09-14T14:46:36.326Z,4.38
2022-09-14T14:51:21.976Z,7.32
2022-09-14T14:56:07.098Z,4.20
2022-09-14T15:00:53.138Z,2.60
2022-09-14T15:05:42.910Z,4.68
2022-09-14T15:10:31.438Z,5.93
2022-09-14T15:15:18.052Z,4.47
2022-09-14T15:20:03.465Z,7.00
2022-09-14T15:24:51.041Z,5.78
2022-09-14T15:29:36.568Z,12.68
2022-09-14T15:34:21.843Z,5.55
2022-09-14T15:39:07.680Z,14.65
2022-09-14T15:43:55.403Z,7.30
2022-09-14T15:48:43.371Z,5.07
2022-09-14T15:53:28.412Z,9.75
2022-09-14T15:58:14.404Z,6.97
2022-09-14T16:03:02.065Z,5.85
2022-09-14T16:07:48.001Z,8.38
2022-09-14T16:12:33.488Z,10.93
2022-09-14T16:17:19.197Z,7.18
2022-09-14T16:22:07.689Z,7.78
2022-09-14T16:26:53.751Z,6.43
2022-09-14T16:31:40.647Z,5.38
2022-09-14T16:36:29.019Z,8.68
2022-09-14T16:41:18.095Z,10.93
2022-09-14T16:46:04.877Z,9.20
2022-09-14T16:50:55.794Z,9.52
2022-09-14T17:00:28.552Z,14.90
2022-09-14T17:05:14.816Z,8.18
2022-09-14T17:09:59.952Z,12.48
2022-09-14T17:14:45.232Z,7.63
2022-09-14T17:19:33.329Z,7.43
2022-09-14T17:24:19.885Z,13.98
2022-09-14T17:29:05.951Z,7.97
2022-09-14T17:33:52.035Z,12.40
2022-09-14T17:38:41.687Z,10.98
2022-09-14T17:43:26.992Z,11.90
2022-09-14T17:48:14.238Z,10.40
2022-09-14T17:52:59.603Z,10.25
2022-09-14T17:57:47.346Z,8.40
2022-09-14T18:02:32.663Z,8.77
2022-09-14T18:07:17.919Z,11.98
2022-09-14T18:12:03.276Z,11.13
2022-09-14T18:16:50.912Z,14.63
2022-09-14T18:21:36.509Z,11.85
2022-09-14T18:26:22.552Z,12.43
2022-09-14T18:31:10.796Z,10.07
2022-09-14T18:35:59.043Z,9.63
2022-09-14T18:40:44.468Z,13.65
2022-09-14T18:45:29.705Z,11.30
2022-09-14T18:50:15.164Z,8.25
2022-09-14T18:55:02.957Z,11.25
2022-09-14T18:59:48.376Z,14.07
2022-09-14T19:04:33.435Z,11.13
2022-09-14T19:09:18.705Z,9.93
2022-09-14T19:14:10.446Z,12.30
2022-09-14T19:18:56.116Z,9.35
2022-09-14T19:23:43.174Z,14.32
2022-09-14T19:28:28.596Z,12.52
2022-09-14T19:33:16.435Z,11.52
2022-09-14T19:38:01.798Z,11.38
2022-09-14T19:42:46.860Z,9.98
2022-09-14T19:47:32.720Z,14.30
2022-09-14T19:52:20.745Z,13.25
2022-09-14T19:57:07.006Z,15.15
2022-09-14T20:01:52.891Z,10.65
2022-09-14T20:06:40.515Z,13.70
2022-09-14T20:11:30.327Z,12.52
2022-09-14T20:16:17.014Z,14.18
2022-09-14T20:21:02.055Z,10.23
2022-09-14T20:25:47.350Z,13.85
2022-09-14T20:30:35.023Z,10.88
2022-09-14T20:35:21.119Z,12.60
2022-09-14T20:40:06.895Z,11.38
2022-09-14T20:44:52.294Z,14.57
2022-09-14T20:49:39.911Z,14.18
2022-09-14T20:54:25.951Z,17.77
2022-09-14T20:59:14.793Z,12.63
2022-09-14T21:04:06.296Z,10.15
2022-09-14T21:08:54.851Z,19.00
2022-09-14T21:13:41.049Z,13.68
2022-09-14T21:18:26.092Z,12.82
2022-09-14T21:23:11.362Z,11.38
2022-09-14T21:27:59.033Z,11.95
2022-09-14T21:32:49.566Z,15.48
2022-09-14T21:37:34.586Z,9.10
2022-09-14T21:42:19.879Z,8.88
2022-09-14T21:47:08.079Z,16.55
2022-09-14T21:51:53.481Z,9.25
2022-09-14T21:56:41.139Z,7.47
2022-09-14T22:01:27.538Z,14.27
2022-09-14T22:06:16.873Z,10.15
2022-09-14T22:11:06.460Z,15.70
2022-09-14T22:15:51.888Z,13.23
2022-09-14T22:20:37.568Z,11.63
2022-09-14T22:25:25.920Z,12.68
2022-09-14T22:30:12.869Z,12.70
2022-09-14T22:34:58.132Z,11.07
2022-09-14T22:39:43.158Z,16.98
2022-09-14T22:44:31.284Z,27.05
2022-09-14T22:49:16.632Z,30.02
2022-09-14T22:54:02.192Z,24.05
2022-09-14T22:58:47.840Z,30.52
2022-09-14T23:03:35.891Z,38.97
2022-09-14T23:08:21.729Z,24.25
2022-09-14T23:13:07.337Z,20.00
2022-09-14T23:17:52.416Z,18.15
2022-09-14T23:22:40.810Z,15.50
2022-09-14T23:27:25.805Z,14.60
2022-09-14T23:32:11.380Z,13.68
2022-09-14T23:36:57.457Z,15.13
2022-09-14T23:41:45.325Z,12.18
2022-09-14T23:46:30.447Z,14.68
2022-09-14T23:51:16.566Z,17.60
2022-09-14T23:56:01.822Z,19.50
